createdAt,value
2023-05-12T00:01:43.341Z,99.90
2023-05-12T00:04:10.940Z,99.90
2023-05-12T00:06:38.766Z,99.90
2023-05-12T00:09:06.429Z,99.90
2023-05-12T00:11:33.783Z,99.90
2023-05-12T00:14:01.093Z,99.90
2023-05-12T00:16:28.326Z,99.90
2023-05-12T00:18:55.686Z,99.90
2023-05-12T00:21:23.304Z,99.90
2023-05-12T00:23:50.592Z,99.90
2023-05-12T00:26:17.953Z,99.90
2023-05-12T00:28:45.607Z,99.90
2023-05-12T00:31:13.161Z,99.90
2023-05-12T00:33:41.510Z,99.90
2023-05-12T00:36:08.999Z,99.90
2023-05-12T00:38:37.513Z,99.90
2023-05-12T00:41:04.847Z,99.90
2023-05-12T00:43:32.168Z,99.90
2023-05-12T00:46:01.325Z,99.90
2023-05-12T00:48:28.625Z,99.90
2023-05-12T00:50:57.940Z,99.90
2023-05-12T00:53:27.762Z,99.90
2023-05-12T00:55:59.995Z,99.90
2023-05-12T00:58:27.300Z,99.90
2023-05-12T01:00:54.887Z,99.90
2023-05-12T01:03:22.481Z,99.90
2023-05-12T01:05:55.454Z,99.90
2023-05-12T01:08:23.483Z,99.90
2023-05-12T01:10:50.778Z,99.90
2023-05-12T01:13:18.033Z,99.90
2023-05-12T01:15:49.089Z,99.90
2023-05-12T01:18:19.941Z,99.90
2023-05-12T01:20:48.428Z,99.90
2023-05-12T01:23:19.453Z,99.90
2023-05-12T01:25:49.349Z,99.90
2023-05-12T01:28:18.456Z,99.90
2023-05-12T01:30:46.551Z,99.90
2023-05-12T01:33:14.508Z,99.90
2023-05-12T01:35:42.517Z,99.90
2023-05-12T01:38:09.858Z,99.90
2023-05-12T01:40:37.268Z,99.90
2023-05-12T01:43:04.934Z,99.90
2023-05-12T01:45:32.282Z,99.90
2023-05-12T01:47:59.747Z,99.90
2023-05-12T01:50:27.517Z,99.90
2023-05-12T01:52:54.690Z,99.90
2023-05-12T01:55:22.004Z,99.90
2023-05-12T01:57:49.172Z,99.90
2023-05-12T02:00:17.051Z,99.90
2023-05-12T02:02:44.376Z,99.90
2023-05-12T02:05:11.804Z,99.90
2023-05-12T02:07:39.184Z,99.90
2023-05-12T02:10:07.780Z,99.90
2023-05-12T02:12:35.139Z,99.90
2023-05-12T02:15:02.385Z,99.90
2023-05-12T02:17:29.642Z,99.90
2023-05-12T02:19:56.908Z,99.90
2023-05-12T02:22:24.093Z,99.90
2023-05-12T02:24:51.407Z,99.90
2023-05-12T02:27:18.645Z,99.90
2023-05-12T02:29:45.997Z,99.90
2023-05-12T02:32:13.462Z,99.90
2023-05-12T02:34:40.721Z,99.90
2023-05-12T02:37:08.000Z,99.90
2023-05-12T02:39:35.731Z,99.90
2023-05-12T02:42:03.582Z,99.90
2023-05-12T02:44:30.717Z,99.90
2023-05-12T02:46:58.171Z,99.90
2023-05-12T02:49:25.553Z,99.90
2023-05-12T02:51:52.809Z,99.90
2023-05-12T02:54:20.271Z,99.90
2023-05-12T02:56:47.617Z,99.90
2023-05-12T02:59:14.827Z,99.90
2023-05-12T03:01:42.144Z,99.90
2023-05-12T03:04:09.397Z,99.90
2023-05-12T03:06:36.834Z,99.90
2023-05-12T03:09:04.126Z,99.90
2023-05-12T03:11:31.648Z,99.90
2023-05-12T03:13:58.909Z,99.90
2023-05-12T03:16:26.157Z,99.90
2023-05-12T03:18:53.816Z,99.90
2023-05-12T03:21:21.269Z,99.90
2023-05-12T03:23:48.655Z,99.90
2023-05-12T03:26:16.255Z,99.90
2023-05-12T03:28:43.576Z,99.90
2023-05-12T03:31:11.374Z,99.90
2023-05-12T03:33:38.762Z,99.90
2023-05-12T03:36:07.017Z,99.90
2023-05-12T03:38:34.679Z,99.90
2023-05-12T03:41:08.461Z,99.90
2023-05-12T03:43:36.123Z,99.90
2023-05-12T03:46:03.978Z,99.90
2023-05-12T03:48:31.427Z,99.90
2023-05-12T03:50:58.765Z,99.90
2023-05-12T03:53:26.053Z,99.90
2023-05-12T03:55:53.246Z,99.90
2023-05-12T03:58:20.498Z,99.90
2023-05-12T04:00:50.002Z,99.90
2023-05-12T04:03:17.849Z,99.90
2023-05-12T04:05:45.338Z,99.90
2023-05-12T04:08:12.888Z,99.90
2023-05-12T04:10:41.075Z,99.90
2023-05-12T04:13:08.974Z,99.90
2023-05-12T04:15:36.706Z,99.90
2023-05-12T04:18:04.292Z,99.90
2023-05-12T04:20:31.687Z,99.90
2023-05-12T04:22:58.927Z,99.90
2023-05-12T04:25:26.684Z,99.90
2023-05-12T04:27:53.926Z,99.90
2023-05-12T04:30:22.408Z,99.90
2023-05-12T04:32:49.895Z,99.90
2023-05-12T04:35:17.245Z,99.90
2023-05-12T04:37:44.501Z,99.90
2023-05-12T04:40:11.920Z,99.90
2023-05-12T04:42:39.268Z,99.90
2023-05-12T04:45:07.523Z,99.90
2023-05-12T04:47:34.840Z,99.90
2023-05-12T04:50:02.119Z,99.00
2023-05-12T04:52:29.605Z,97.60
2023-05-12T04:54:56.854Z,95.50
2023-05-12T04:57:24.409Z,96.20
2023-05-12T04:59:51.717Z,94.50
2023-05-12T05:02:19.528Z,92.80
2023-05-12T05:04:47.103Z,91.70
2023-05-12T05:07:15.125Z,91.70
2023-05-12T05:09:42.394Z,91.50
2023-05-12T05:12:09.684Z,92.20
2023-05-12T05:14:36.955Z,94.40
2023-05-12T05:17:04.334Z,99.20
2023-05-12T05:19:44.755Z,99.90
2023-05-12T05:22:19.032Z,99.90
2023-05-12T05:24:46.267Z,99.90
2023-05-12T05:27:14.050Z,99.90
2023-05-12T05:29:41.399Z,99.90
2023-05-12T05:32:08.579Z,99.90
2023-05-12T05:34:35.872Z,99.90
2023-05-12T05:37:03.659Z,99.90
2023-05-12T05:39:31.705Z,99.90
2023-05-12T05:41:58.955Z,99.90
2023-05-12T05:44:26.211Z,99.90
2023-05-12T05:46:53.491Z,99.90
2023-05-12T05:49:20.758Z,99.90
2023-05-12T05:51:47.962Z,99.90
2023-05-12T05:54:15.269Z,98.80
2023-05-12T05:56:42.505Z,90.90
2023-05-12T05:59:09.975Z,78.40
2023-05-12T06:01:37.233Z,73.70
2023-05-12T06:04:04.589Z,75.50
2023-05-12T06:06:31.860Z,71.20
2023-05-12T06:08:59.134Z,67.50
2023-05-12T06:11:26.637Z,66.80
2023-05-12T06:13:53.858Z,76.50
2023-05-12T06:16:21.221Z,82.50
2023-05-12T06:18:48.569Z,88.10
2023-05-12T06:21:15.943Z,91.70
2023-05-12T06:23:43.200Z,91.70
2023-05-12T06:26:10.516Z,91.70
2023-05-12T06:28:37.698Z,92.00
2023-05-12T06:31:08.669Z,92.00
2023-05-12T06:33:36.044Z,91.20
2023-05-12T06:36:03.563Z,90.70
2023-05-12T06:38:31.017Z,86.60
2023-05-12T06:40:58.884Z,86.50
2023-05-12T06:43:26.922Z,85.30
2023-05-12T06:45:54.066Z,81.20
2023-05-12T06:48:21.907Z,78.30
2023-05-12T06:50:49.296Z,77.80
2023-05-12T06:53:16.483Z,78.00
2023-05-12T06:55:44.483Z,75.00
2023-05-12T06:58:11.780Z,69.20
2023-05-12T07:00:39.104Z,66.70
2023-05-12T07:03:10.543Z,65.10
2023-05-12T07:05:38.044Z,60.70
2023-05-12T07:08:06.044Z,58.40
2023-05-12T07:10:33.464Z,57.90
2023-05-12T07:13:01.042Z,55.50
2023-05-12T07:15:29.247Z,55.00
2023-05-12T07:17:58.099Z,54.40
2023-05-12T07:20:25.422Z,55.80
2023-05-12T07:22:54.989Z,54.30
2023-05-12T07:25:22.707Z,55.60
2023-05-12T07:27:50.651Z,54.30
2023-05-12T07:30:17.964Z,54.80
2023-05-12T07:32:45.333Z,56.40
2023-05-12T07:35:13.216Z,57.50
2023-05-12T07:37:41.593Z,54.10
2023-05-12T07:40:09.432Z,52.50
2023-05-12T07:42:36.682Z,52.00
2023-05-12T07:45:04.387Z,51.90
2023-05-12T07:47:31.678Z,51.60
2023-05-12T07:49:58.984Z,51.50
2023-05-12T07:52:26.315Z,52.50
2023-05-12T07:54:53.617Z,54.10
2023-05-12T07:57:21.101Z,52.10
2023-05-12T07:59:48.506Z,50.70
2023-05-12T08:02:17.680Z,50.20
2023-05-12T08:04:44.994Z,50.70
2023-05-12T08:07:12.215Z,49.30
2023-05-12T08:09:39.535Z,49.30
2023-05-12T08:12:06.703Z,50.50
2023-05-12T08:14:33.901Z,49.30
2023-05-12T08:17:01.545Z,49.10
2023-05-12T08:19:28.785Z,48.50
2023-05-12T08:21:56.311Z,49.70
2023-05-12T08:24:23.865Z,49.10
2023-05-12T08:26:51.154Z,47.90
2023-05-12T08:29:18.398Z,48.40
2023-05-12T08:31:46.152Z,48.00
2023-05-12T08:34:13.437Z,47.90
2023-05-12T08:36:41.049Z,47.20
2023-05-12T08:39:11.748Z,47.70
2023-05-12T08:41:44.760Z,46.90
2023-05-12T08:44:13.366Z,48.90
2023-05-12T08:46:41.167Z,48.90
2023-05-12T08:49:12.703Z,46.70
2023-05-12T08:51:42.221Z,47.40
2023-05-12T08:54:10.724Z,46.70
2023-05-12T08:59:10.606Z,46.40
2023-05-12T09:01:38.651Z,47.60
2023-05-12T09:04:06.540Z,47.60
2023-05-12T09:06:34.411Z,47.00
2023-05-12T09:09:03.318Z,46.80
2023-05-12T09:11:30.665Z,46.80
2023-05-12T09:14:07.896Z,47.40
2023-05-12T09:16:43.545Z,47.40
2023-05-12T09:19:11.149Z,47.00
2023-05-12T09:21:38.485Z,46.90
2023-05-12T09:24:07.775Z,46.90
2023-05-12T09:26:48.240Z,46.90
2023-05-12T09:29:27.923Z,48.60
2023-05-12T09:31:59.859Z,46.30
2023-05-12T09:34:38.931Z,44.10
2023-05-12T09:37:08.029Z,45.00
2023-05-12T09:39:36.519Z,47.90
2023-05-12T09:42:04.069Z,46.50
2023-05-12T09:44:32.528Z,45.30
2023-05-12T09:47:10.689Z,44.20
2023-05-12T09:49:38.629Z,45.50
2023-05-12T09:52:06.394Z,44.00
2023-05-12T09:54:34.611Z,44.40
2023-05-12T09:57:05.053Z,44.80
2023-05-12T09:59:36.629Z,46.00
2023-05-12T10:02:06.539Z,46.30
2023-05-12T10:04:51.137Z,45.30
2023-05-12T10:07:22.785Z,47.10
2023-05-12T10:09:50.779Z,47.00
2023-05-12T10:12:18.069Z,47.90
2023-05-12T10:14:46.548Z,46.90
2023-05-12T10:17:14.865Z,46.70
2023-05-12T10:19:42.512Z,46.70
2023-05-12T10:22:16.135Z,46.30
2023-05-12T10:24:45.827Z,46.60
2023-05-12T10:27:16.237Z,46.80
2023-05-12T10:29:44.454Z,46.80
2023-05-12T10:32:11.905Z,47.30
2023-05-12T10:34:42.134Z,46.90
2023-05-12T10:37:11.480Z,47.30
2023-05-12T10:39:52.673Z,47.30
2023-05-12T10:42:26.225Z,48.30
2023-05-12T10:44:55.643Z,46.80
2023-05-12T10:47:36.271Z,44.30
2023-05-12T10:50:04.097Z,43.30
2023-05-12T10:52:31.280Z,43.00
2023-05-12T10:55:03.509Z,44.60
2023-05-12T10:57:32.448Z,43.70
2023-05-12T11:00:02.229Z,45.60
2023-05-12T11:02:37.324Z,45.30
2023-05-12T11:05:12.863Z,44.60
2023-05-12T11:07:41.832Z,43.40
2023-05-12T11:10:13.180Z,44.30
2023-05-12T11:12:43.785Z,44.80
2023-05-12T11:15:12.466Z,44.00
2023-05-12T11:17:41.426Z,45.40
2023-05-12T11:20:12.032Z,46.40
2023-05-12T11:22:41.281Z,46.70
2023-05-12T11:25:12.532Z,43.80
2023-05-12T11:27:46.068Z,43.40
2023-05-12T11:30:13.784Z,44.20
2023-05-12T11:32:41.377Z,45.30
2023-05-12T11:35:19.860Z,45.30
2023-05-12T11:37:47.712Z,45.70
2023-05-12T11:40:18.865Z,43.20
2023-05-12T11:42:52.355Z,44.90
2023-05-12T11:45:29.446Z,45.20
2023-05-12T11:48:14.291Z,45.00
2023-05-12T11:50:44.600Z,44.90
2023-05-12T11:53:15.174Z,45.20
2023-05-12T11:55:53.368Z,46.90
2023-05-12T11:58:22.861Z,44.10
2023-05-12T12:00:50.563Z,44.30
2023-05-12T12:03:18.091Z,44.90
2023-05-12T12:05:58.191Z,44.30
2023-05-12T12:08:25.392Z,44.40
2023-05-12T12:10:52.874Z,45.00
2023-05-12T12:13:24.758Z,45.60
2023-05-12T12:15:52.512Z,46.60
2023-05-12T12:18:19.961Z,48.10
2023-05-12T12:20:47.724Z,48.70
2023-05-12T12:23:15.228Z,50.80
2023-05-12T12:25:43.734Z,50.80
2023-05-12T12:28:11.222Z,51.00
2023-05-12T12:30:38.571Z,50.70
2023-05-12T12:33:05.777Z,51.50
2023-05-12T12:35:33.029Z,52.50
2023-05-12T12:38:00.837Z,53.00
2023-05-12T12:40:28.541Z,53.20
2023-05-12T12:42:56.133Z,52.80
2023-05-12T12:45:23.883Z,52.50
2023-05-12T12:47:55.089Z,53.10
2023-05-12T12:50:25.052Z,53.80
2023-05-12T12:52:53.158Z,52.10
2023-05-12T12:55:20.936Z,53.30
2023-05-12T12:57:48.919Z,53.00
2023-05-12T13:00:17.631Z,52.80
2023-05-12T13:02:45.518Z,53.70
2023-05-12T13:05:12.965Z,52.50
2023-05-12T13:07:40.179Z,52.90
2023-05-12T13:10:07.956Z,52.80
2023-05-12T13:12:36.847Z,52.60
2023-05-12T13:15:04.566Z,49.00
2023-05-12T13:17:32.150Z,49.60
2023-05-12T13:19:59.503Z,47.70
2023-05-12T13:22:29.061Z,48.80
2023-05-12T13:24:56.681Z,51.80
2023-05-12T13:27:23.907Z,53.00
2023-05-12T13:29:52.125Z,51.40
2023-05-12T13:32:20.967Z,52.60
2023-05-12T13:34:48.208Z,52.50
2023-05-12T13:37:15.399Z,53.50
2023-05-12T13:39:42.904Z,54.10
2023-05-12T13:42:10.112Z,54.70
2023-05-12T13:44:37.931Z,55.90
2023-05-12T13:47:08.068Z,54.30
2023-05-12T13:49:36.820Z,53.30
2023-05-12T13:52:04.239Z,54.30
2023-05-12T13:54:32.283Z,53.80
2023-05-12T13:56:59.766Z,54.70
2023-05-12T13:59:27.092Z,55.30
2023-05-12T14:01:54.422Z,56.50
2023-05-12T14:04:21.644Z,55.00
2023-05-12T14:06:49.067Z,54.20
2023-05-12T14:09:16.224Z,55.50
2023-05-12T14:11:43.544Z,54.80
2023-05-12T14:14:11.425Z,54.10
2023-05-12T14:16:38.865Z,53.40
2023-05-12T14:19:06.310Z,54.20
2023-05-12T14:21:33.599Z,54.70
2023-05-12T14:24:00.852Z,53.90
2023-05-12T14:26:28.744Z,54.50
2023-05-12T14:28:56.163Z,56.10
2023-05-12T14:31:23.451Z,55.10
2023-05-12T14:33:51.324Z,55.20
2023-05-12T14:36:18.571Z,54.60
2023-05-12T14:38:45.900Z,55.80
2023-05-12T14:41:13.356Z,55.40
2023-05-12T14:43:40.611Z,63.70
2023-05-12T14:46:08.975Z,67.90
2023-05-12T14:48:36.241Z,57.10
2023-05-12T14:51:03.798Z,56.60
2023-05-12T14:53:31.469Z,55.40
2023-05-12T14:55:58.870Z,56.40
2023-05-12T14:58:26.089Z,55.30
2023-05-12T15:00:53.493Z,56.40
2023-05-12T15:03:21.503Z,56.30
2023-05-12T15:06:04.852Z,56.20
2023-05-12T15:08:33.715Z,56.00
2023-05-12T15:11:00.901Z,56.70
2023-05-12T15:13:28.177Z,57.40
2023-05-12T15:15:56.925Z,56.00
2023-05-12T15:18:24.682Z,56.80
2023-05-12T15:20:52.182Z,57.30
2023-05-12T15:23:19.530Z,58.20
2023-05-12T15:25:47.042Z,56.70
2023-05-12T15:28:14.388Z,56.40
2023-05-12T15:30:42.106Z,56.10
2023-05-12T15:33:10.478Z,56.90
2023-05-12T15:35:40.103Z,57.00
2023-05-12T15:38:07.506Z,56.90
2023-05-12T15:40:34.699Z,57.50
2023-05-12T15:43:02.333Z,57.50
2023-05-12T15:45:29.627Z,58.80
2023-05-12T15:47:57.116Z,58.20
2023-05-12T15:50:24.897Z,58.20
2023-05-12T15:52:52.202Z,58.40
2023-05-12T15:55:19.888Z,56.90
2023-05-12T15:57:50.386Z,58.70
2023-05-12T16:00:18.696Z,57.50
2023-05-12T16:02:46.148Z,57.20
2023-05-12T16:05:13.979Z,57.00
2023-05-12T16:07:41.162Z,56.90
2023-05-12T16:10:09.200Z,57.00
2023-05-12T16:12:36.590Z,57.70
2023-05-12T16:15:05.097Z,58.50
2023-05-12T16:17:32.689Z,58.80
2023-05-12T16:20:00.017Z,58.20
2023-05-12T16:22:27.607Z,58.10
2023-05-12T16:24:56.988Z,58.50
2023-05-12T16:27:24.265Z,58.30
2023-05-12T16:29:53.698Z,58.50
2023-05-12T16:32:21.084Z,58.90
2023-05-12T16:34:48.615Z,59.50
2023-05-12T16:37:16.451Z,59.70
2023-05-12T16:39:43.762Z,59.30
2023-05-12T16:42:11.008Z,59.70
2023-05-12T16:44:38.267Z,59.80
2023-05-12T16:47:05.924Z,59.90
2023-05-12T16:49:33.132Z,60.50
2023-05-12T16:52:00.373Z,60.20
2023-05-12T16:54:27.647Z,60.90
2023-05-12T16:56:56.600Z,60.20
2023-05-12T16:59:23.878Z,59.90
2023-05-12T17:01:51.218Z,60.90
2023-05-12T17:04:18.551Z,62.40
2023-05-12T17:06:45.904Z,62.80
2023-05-12T17:09:13.042Z,63.00
2023-05-12T17:11:40.179Z,62.80
2023-05-12T17:14:07.790Z,63.60
2023-05-12T17:16:35.532Z,63.60
2023-05-12T17:21:33.882Z,64.10
2023-05-12T17:24:01.089Z,64.60
2023-05-12T17:26:28.958Z,64.60
2023-05-12T17:28:56.345Z,64.90
2023-05-12T17:31:23.673Z,65.20
2023-05-12T17:33:51.235Z,65.80
2023-05-12T17:36:18.861Z,66.60
2023-05-12T17:38:47.013Z,67.20
2023-05-12T17:41:16.264Z,66.70
2023-05-12T17:43:43.492Z,65.90
2023-05-12T17:46:10.830Z,67.30
2023-05-12T17:48:38.853Z,66.80
2023-05-12T17:51:06.601Z,67.30
2023-05-12T17:53:34.370Z,67.60
2023-05-12T17:56:01.956Z,68.00
2023-05-12T17:58:29.264Z,68.50
2023-05-12T18:00:56.768Z,69.00
2023-05-12T18:03:24.210Z,69.30
2023-05-12T18:05:53.311Z,70.40
2023-05-12T18:08:21.778Z,71.10
2023-05-12T18:10:49.597Z,71.10
2023-05-12T18:13:16.869Z,71.00
2023-05-12T18:15:44.396Z,71.30
2023-05-12T18:18:12.040Z,72.10
2023-05-12T18:20:39.340Z,72.10
2023-05-12T18:23:07.028Z,73.10
2023-05-12T18:25:34.234Z,74.10
2023-05-12T18:28:01.656Z,73.20
2023-05-12T18:30:29.116Z,73.20
2023-05-12T18:32:56.560Z,73.80
2023-05-12T18:35:24.928Z,73.50
2023-05-12T18:37:52.254Z,73.70
2023-05-12T18:40:19.752Z,74.60
2023-05-12T18:42:47.769Z,74.80
2023-05-12T18:45:15.802Z,75.80
2023-05-12T18:47:43.916Z,75.10
2023-05-12T18:50:11.457Z,76.90
2023-05-12T18:52:38.739Z,76.20
2023-05-12T18:55:06.421Z,76.90
2023-05-12T18:57:33.845Z,77.00
2023-05-12T19:00:01.097Z,77.80
2023-05-12T19:02:28.361Z,77.80
2023-05-12T19:04:55.922Z,77.60
2023-05-12T19:07:23.583Z,77.70
2023-05-12T19:09:50.799Z,78.20
2023-05-12T19:12:18.561Z,79.10
2023-05-12T19:14:46.077Z,79.30
2023-05-12T19:17:13.633Z,79.50
2023-05-12T19:19:41.008Z,79.50
2023-05-12T19:22:08.422Z,79.70
2023-05-12T19:24:37.871Z,80.10
2023-05-12T19:27:05.223Z,80.60
2023-05-12T19:29:33.150Z,80.80
2023-05-12T19:32:00.536Z,81.60
2023-05-12T19:34:29.663Z,82.30
2023-05-12T19:37:00.863Z,82.10
2023-05-12T19:39:28.841Z,83.20
2023-05-12T19:41:56.069Z,83.20
2023-05-12T19:44:23.325Z,83.70
2023-05-12T19:46:51.028Z,84.30
2023-05-12T19:49:18.254Z,84.70
2023-05-12T19:51:46.086Z,84.90
2023-05-12T19:54:13.528Z,85.40
2023-05-12T19:56:40.767Z,85.80
2023-05-12T19:59:07.896Z,87.10
2023-05-12T20:01:35.112Z,87.20
2023-05-12T20:04:02.944Z,87.70
2023-05-12T20:06:31.028Z,88.30
2023-05-12T20:08:58.157Z,90.20
2023-05-12T20:11:25.366Z,90.30
2023-05-12T20:13:52.572Z,91.00
2023-05-12T20:16:19.831Z,91.30
2023-05-12T20:18:50.927Z,91.40
2023-05-12T20:21:18.242Z,92.10
2023-05-12T20:23:45.728Z,92.60
2023-05-12T20:26:13.426Z,92.10
2023-05-12T20:28:41.319Z,92.60
2023-05-12T20:31:10.368Z,91.80
2023-05-12T20:33:37.649Z,92.90
2023-05-12T20:36:06.218Z,92.80
2023-05-12T20:38:33.416Z,93.00
2023-05-12T20:41:05.387Z,93.20
2023-05-12T20:43:33.078Z,93.30
2023-05-12T20:46:03.065Z,93.50
2023-05-12T20:48:30.366Z,94.20
2023-05-12T20:50:57.714Z,94.80
2023-05-12T20:53:25.112Z,94.80
2023-05-12T20:55:52.288Z,95.60
2023-05-12T20:58:19.430Z,96.10
2023-05-12T21:00:46.870Z,96.20
2023-05-12T21:03:17.263Z,95.80
2023-05-12T21:05:48.176Z,96.10
2023-05-12T21:08:16.031Z,97.50
2023-05-12T21:10:43.258Z,97.80
2023-05-12T21:13:10.622Z,97.30
2023-05-12T21:15:37.769Z,97.60
2023-05-12T21:18:05.109Z,97.90
2023-05-12T21:20:32.304Z,97.70
2023-05-12T21:22:59.467Z,98.10
2023-05-12T21:25:26.659Z,97.70
2023-05-12T21:27:53.923Z,98.20
2023-05-12T21:30:21.779Z,98.10
2023-05-12T21:32:49.136Z,99.10
2023-05-12T21:35:16.466Z,98.30
2023-05-12T21:37:43.628Z,98.70
2023-05-12T21:40:11.246Z,98.80
2023-05-12T21:42:38.496Z,98.70
2023-05-12T21:45:06.426Z,99.00
2023-05-12T21:47:33.817Z,99.50
2023-05-12T21:50:01.483Z,99.20
2023-05-12T21:52:28.610Z,99.70
2023-05-12T21:54:56.059Z,99.50
2023-05-12T21:57:23.282Z,99.90
2023-05-12T21:59:50.476Z,99.90
2023-05-12T22:02:17.790Z,99.90
2023-05-12T22:04:45.095Z,99.90
2023-05-12T22:07:12.411Z,99.90
2023-05-12T22:09:39.675Z,99.90
2023-05-12T22:12:07.580Z,99.90
2023-05-12T22:14:34.739Z,99.90
2023-05-12T22:17:02.554Z,99.90
2023-05-12T22:19:30.988Z,99.90
2023-05-12T22:21:58.401Z,99.90
2023-05-12T22:24:25.706Z,99.90
2023-05-12T22:26:52.951Z,99.90
2023-05-12T22:29:20.184Z,99.90
2023-05-12T22:31:47.702Z,99.90
2023-05-12T22:34:15.091Z,99.90
2023-05-12T22:36:42.351Z,99.90
2023-05-12T22:39:09.704Z,99.90
2023-05-12T22:41:37.050Z,99.90
2023-05-12T22:44:04.439Z,99.90
2023-05-12T22:46:31.639Z,99.90
2023-05-12T22:48:59.819Z,99.90
2023-05-12T22:51:27.079Z,99.90
2023-05-12T22:53:54.344Z,99.90
2023-05-12T22:56:21.788Z,99.90
2023-05-12T22:58:48.979Z,99.90
2023-05-12T23:01:16.437Z,99.90
2023-05-12T23:03:43.695Z,99.90
2023-05-12T23:06:11.352Z,99.90
2023-05-12T23:08:38.560Z,99.90
2023-05-12T23:11:05.748Z,99.90
2023-05-12T23:13:32.899Z,99.90
2023-05-12T23:16:00.216Z,99.90
2023-05-12T23:18:27.447Z,99.90
2023-05-12T23:20:54.606Z,99.90
2023-05-12T23:23:21.786Z,99.90
2023-05-12T23:25:49.652Z,99.90
2023-05-12T23:28:17.110Z,99.90
2023-05-12T23:30:44.258Z,99.90
2023-05-12T23:33:11.733Z,99.90
2023-05-12T23:35:39.162Z,99.90
2023-05-12T23:38:06.495Z,99.90
2023-05-12T23:40:38.996Z,99.90
2023-05-12T23:43:06.866Z,99.90
2023-05-12T23:45:34.868Z,99.90
2023-05-12T23:48:02.123Z,99.90
2023-05-12T23:50:29.356Z,99.90
2023-05-12T23:52:56.727Z,99.90
2023-05-12T23:55:24.018Z,99.90
2023-05-12T23:57:51.239Z,99.90
